createdAt,value
2022-08-19T00:00:40.884Z,19.81
2022-08-19T00:01:44.903Z,19.82
2022-08-19T00:02:55.435Z,19.81
2022-08-19T00:04:00.464Z,19.82
2022-08-19T00:05:02.940Z,19.81
2022-08-19T00:06:04.805Z,19.81
2022-08-19T00:07:07.362Z,19.81
2022-08-19T00:08:08.970Z,19.79
2022-08-19T00:09:13.350Z,19.80
2022-08-19T00:10:16.637Z,19.78
2022-08-19T00:11:26.091Z,19.73
2022-08-19T00:12:28.317Z,19.68
2022-08-19T00:13:30.043Z,19.76
2022-08-19T00:14:32.364Z,19.73
2022-08-19T00:15:34.477Z,19.64
2022-08-19T00:16:36.990Z,19.70
2022-08-19T00:17:42.065Z,19.70
2022-08-19T00:18:43.675Z,19.70
2022-08-19T00:19:45.225Z,19.72
2022-08-19T00:20:46.937Z,19.72
2022-08-19T00:21:48.624Z,19.73
2022-08-19T00:22:50.425Z,19.75
2022-08-19T00:23:52.054Z,19.73
2022-08-19T00:24:53.721Z,19.80
2022-08-19T00:25:56.328Z,19.81
2022-08-19T00:27:25.101Z,19.81
2022-08-19T00:28:21.561Z,19.79
2022-08-19T00:29:24.781Z,19.73
2022-08-19T00:30:28.535Z,19.74
2022-08-19T00:31:30.165Z,19.80
2022-08-19T00:32:31.792Z,19.81
2022-08-19T00:33:35.094Z,19.81
2022-08-19T00:34:36.678Z,19.83
2022-08-19T00:35:39.413Z,19.84
2022-08-19T00:36:42.627Z,19.86
2022-08-19T00:37:44.586Z,19.87
2022-08-19T00:38:47.389Z,19.88
2022-08-19T00:39:49.416Z,19.81
2022-08-19T00:40:51.255Z,19.88
2022-08-19T00:41:52.847Z,19.57
2022-08-19T00:42:54.785Z,19.85
2022-08-19T00:44:02.211Z,19.85
2022-08-19T00:45:11.601Z,19.84
2022-08-19T00:46:13.211Z,19.84
2022-08-19T00:47:15.221Z,19.83
2022-08-19T00:48:19.092Z,19.87
2022-08-19T00:49:53.313Z,19.84
2022-08-19T00:50:56.412Z,19.90
2022-08-19T00:52:03.899Z,19.91
2022-08-19T00:53:05.471Z,19.87
2022-08-19T00:54:07.044Z,19.83
2022-08-19T00:55:12.637Z,19.82
2022-08-19T00:56:14.288Z,19.82
2022-08-19T00:57:19.690Z,19.83
2022-08-19T00:58:25.426Z,19.85
2022-08-19T00:59:53.574Z,19.79
2022-08-19T01:00:50.477Z,19.87
2022-08-19T01:01:53.280Z,19.86
2022-08-19T01:02:55.493Z,19.84
2022-08-19T01:03:58.726Z,19.83
2022-08-19T01:05:03.954Z,19.81
2022-08-19T01:06:06.636Z,19.73
2022-08-19T01:07:09.155Z,19.78
2022-08-19T01:08:19.306Z,19.76
2022-08-19T01:09:20.844Z,19.78
2022-08-19T01:10:29.980Z,19.78
2022-08-19T01:11:37.585Z,19.79
2022-08-19T01:12:40.317Z,19.67
2022-08-19T01:13:49.042Z,19.78
2022-08-19T01:14:52.302Z,19.82
2022-08-19T01:16:05.026Z,19.75
2022-08-19T01:17:09.312Z,19.86
2022-08-19T01:18:14.659Z,19.89
2022-08-19T01:19:44.124Z,19.92
2022-08-19T01:20:47.028Z,19.92
2022-08-19T01:22:14.479Z,19.82
2022-08-19T01:23:18.438Z,19.97
2022-08-19T01:24:19.991Z,19.97
2022-08-19T01:25:27.726Z,19.93
2022-08-19T01:26:31.363Z,19.93
2022-08-19T01:27:45.939Z,19.91
2022-08-19T01:28:49.658Z,19.88
2022-08-19T01:29:53.407Z,19.90
2022-08-19T01:30:55.776Z,19.86
2022-08-19T01:31:58.640Z,19.90
2022-08-19T01:33:01.444Z,19.89
2022-08-19T01:34:04.175Z,19.88
2022-08-19T01:35:06.319Z,19.87
2022-08-19T01:36:11.731Z,19.88
2022-08-19T01:37:14.643Z,19.87
2022-08-19T01:38:28.138Z,19.86
2022-08-19T01:39:29.803Z,19.87
2022-08-19T01:40:34.097Z,19.87
2022-08-19T01:41:36.133Z,19.88
2022-08-19T01:42:37.992Z,19.87
2022-08-19T01:44:03.165Z,19.89
2022-08-19T01:45:01.370Z,19.86
2022-08-19T01:46:04.432Z,19.79
2022-08-19T01:47:06.242Z,19.82
2022-08-19T01:48:08.422Z,19.84
2022-08-19T01:49:11.139Z,19.83
2022-08-19T01:50:14.234Z,19.83
2022-08-19T01:51:16.343Z,19.78
2022-08-19T01:52:17.866Z,19.85
2022-08-19T01:53:19.486Z,19.84
2022-08-19T01:54:27.790Z,19.81
2022-08-19T01:55:29.761Z,19.86
2022-08-19T01:56:31.398Z,19.88
2022-08-19T01:57:33.330Z,19.83
2022-08-19T01:58:47.043Z,19.89
2022-08-19T01:59:48.689Z,19.93
2022-08-19T02:00:50.234Z,19.95
2022-08-19T02:01:51.895Z,19.97
2022-08-19T02:02:53.611Z,20.01
2022-08-19T02:03:56.931Z,20.03
2022-08-19T02:05:00.172Z,20.05
2022-08-19T02:06:03.932Z,20.06
2022-08-19T02:07:08.865Z,20.05
2022-08-19T02:08:11.605Z,20.05
2022-08-19T02:09:13.240Z,20.03
2022-08-19T02:10:21.964Z,20.05
2022-08-19T02:11:28.613Z,20.05
2022-08-19T02:12:30.427Z,20.04
2022-08-19T02:13:33.630Z,19.97
2022-08-19T02:14:36.707Z,19.99
2022-08-19T02:15:38.938Z,20.00
2022-08-19T02:16:41.110Z,20.01
2022-08-19T02:17:43.267Z,19.99
2022-08-19T02:18:45.289Z,20.00
2022-08-19T02:19:46.917Z,20.00
2022-08-19T02:20:48.778Z,20.00
2022-08-19T02:21:50.657Z,19.98
2022-08-19T02:22:52.482Z,19.87
2022-08-19T02:23:54.810Z,19.94
2022-08-19T02:24:56.585Z,19.93
2022-08-19T02:25:58.482Z,19.94
2022-08-19T02:27:00.073Z,19.93
2022-08-19T02:28:01.831Z,19.92
2022-08-19T02:29:03.530Z,19.91
2022-08-19T02:30:08.821Z,19.88
2022-08-19T02:31:19.835Z,19.87
2022-08-19T02:32:21.402Z,19.82
2022-08-19T02:33:22.922Z,19.82
2022-08-19T02:34:25.862Z,19.77
2022-08-19T02:35:27.818Z,19.75
2022-08-19T02:36:29.545Z,19.81
2022-08-19T02:37:50.781Z,19.78
2022-08-19T02:38:54.718Z,19.49
2022-08-19T02:39:57.175Z,19.77
2022-08-19T02:41:02.622Z,19.78
2022-08-19T02:42:04.427Z,19.73
2022-08-19T02:43:09.425Z,19.42
2022-08-19T02:44:30.455Z,19.68
2022-08-19T02:45:34.301Z,19.76
2022-08-19T02:46:37.446Z,19.78
2022-08-19T02:47:39.003Z,19.77
2022-08-19T02:48:44.498Z,19.79
2022-08-19T02:49:46.906Z,19.81
2022-08-19T02:50:53.807Z,19.82
2022-08-19T02:51:55.804Z,19.83
2022-08-19T02:52:57.455Z,19.82
2022-08-19T02:54:00.762Z,19.83
2022-08-19T02:55:02.482Z,19.83
2022-08-19T02:56:08.420Z,19.84
2022-08-19T02:57:10.036Z,19.83
2022-08-19T02:58:11.679Z,19.84
2022-08-19T02:59:13.425Z,19.82
2022-08-19T03:00:15.935Z,19.82
2022-08-19T03:01:22.551Z,19.80
2022-08-19T03:02:24.305Z,19.75
2022-08-19T03:03:26.573Z,19.76
2022-08-19T03:04:28.179Z,19.79
2022-08-19T03:05:55.975Z,19.78
2022-08-19T03:06:51.698Z,19.78
2022-08-19T03:07:53.266Z,19.77
2022-08-19T03:08:55.054Z,19.76
2022-08-19T03:09:56.636Z,19.76
2022-08-19T03:10:58.193Z,19.75
2022-08-19T03:11:59.897Z,19.74
2022-08-19T03:13:01.562Z,19.76
2022-08-19T03:14:08.429Z,19.69
2022-08-19T03:15:10.202Z,19.83
2022-08-19T03:16:13.841Z,19.85
2022-08-19T03:17:15.437Z,19.88
2022-08-19T03:18:18.001Z,19.89
2022-08-19T03:19:22.330Z,19.87
2022-08-19T03:20:23.884Z,19.92
2022-08-19T03:21:27.523Z,19.92
2022-08-19T03:22:31.705Z,19.93
2022-08-19T03:23:33.743Z,19.93
2022-08-19T03:24:35.643Z,19.94
2022-08-19T03:25:41.742Z,19.93
2022-08-19T03:26:46.810Z,19.89
2022-08-19T03:27:49.967Z,19.93
2022-08-19T03:28:58.368Z,19.93
2022-08-19T03:30:00.628Z,19.93
2022-08-19T03:31:41.687Z,19.94
2022-08-19T03:32:32.947Z,19.96
2022-08-19T03:33:35.866Z,19.93
2022-08-19T03:34:38.491Z,19.90
2022-08-19T03:35:40.039Z,19.88
2022-08-19T03:36:41.969Z,19.89
2022-08-19T03:37:43.483Z,19.91
2022-08-19T03:38:48.931Z,19.70
2022-08-19T03:39:57.871Z,19.93
2022-08-19T03:41:04.170Z,19.61
2022-08-19T03:42:32.588Z,19.90
2022-08-19T03:43:27.965Z,19.88
2022-08-19T03:44:30.967Z,19.90
2022-08-19T03:45:32.740Z,19.57
2022-08-19T03:46:34.445Z,19.88
2022-08-19T03:47:36.019Z,19.87
2022-08-19T03:48:39.749Z,19.86
2022-08-19T03:49:41.592Z,19.57
2022-08-19T03:50:44.355Z,19.85
2022-08-19T03:51:47.764Z,19.82
2022-08-19T03:52:51.592Z,19.79
2022-08-19T03:53:55.755Z,19.87
2022-08-19T03:54:57.603Z,19.83
2022-08-19T03:56:01.248Z,19.82
2022-08-19T03:57:05.018Z,19.79
2022-08-19T03:58:07.556Z,19.83
2022-08-19T03:59:21.270Z,19.80
2022-08-19T04:00:23.298Z,19.79
2022-08-19T04:01:30.845Z,19.77
2022-08-19T04:02:37.252Z,19.76
2022-08-19T04:03:39.921Z,19.76
2022-08-19T04:04:44.679Z,19.74
2022-08-19T04:05:47.665Z,19.76
2022-08-19T04:06:49.494Z,19.76
2022-08-19T04:07:51.114Z,19.46
2022-08-19T04:08:54.915Z,19.76
2022-08-19T04:09:56.527Z,19.74
2022-08-19T04:10:58.174Z,19.73
2022-08-19T04:11:59.825Z,19.70
2022-08-19T04:13:01.560Z,19.68
2022-08-19T04:14:04.468Z,19.59
2022-08-19T04:15:07.113Z,19.69
2022-08-19T04:16:10.859Z,19.68
2022-08-19T04:17:12.716Z,19.68
2022-08-19T04:18:14.470Z,19.57
2022-08-19T04:19:17.804Z,19.63
2022-08-19T04:20:19.480Z,19.61
2022-08-19T04:21:24.244Z,19.61
2022-08-19T04:22:25.863Z,19.58
2022-08-19T04:23:32.037Z,19.55
2022-08-19T04:24:35.876Z,19.57
2022-08-19T04:25:43.079Z,19.56
2022-08-19T04:26:45.399Z,19.55
2022-08-19T04:27:47.384Z,19.54
2022-08-19T04:28:50.032Z,19.55
2022-08-19T04:29:51.675Z,19.52
2022-08-19T04:30:54.757Z,19.50
2022-08-19T04:31:57.892Z,19.44
2022-08-19T04:32:59.691Z,19.50
2022-08-19T04:34:05.989Z,19.43
2022-08-19T04:35:18.518Z,19.51
2022-08-19T04:36:27.226Z,19.53
2022-08-19T04:37:33.690Z,19.51
2022-08-19T04:38:37.249Z,19.51
2022-08-19T04:39:58.804Z,19.51
2022-08-19T04:41:23.237Z,19.52
2022-08-19T04:42:40.285Z,19.53
2022-08-19T04:43:41.965Z,19.54
2022-08-19T04:44:46.407Z,19.55
2022-08-19T04:45:48.295Z,19.51
2022-08-19T04:46:51.947Z,19.54
2022-08-19T04:47:58.891Z,19.51
2022-08-19T04:49:23.796Z,19.57
2022-08-19T04:50:28.467Z,19.61
2022-08-19T04:51:32.139Z,19.64
2022-08-19T04:52:33.981Z,19.64
2022-08-19T04:53:38.219Z,19.69
2022-08-19T04:54:40.102Z,19.74
2022-08-19T04:55:42.754Z,19.75
2022-08-19T04:56:44.805Z,19.76
2022-08-19T04:57:53.766Z,19.80
2022-08-19T04:58:57.122Z,19.83
2022-08-19T04:59:58.852Z,19.86
2022-08-19T05:01:03.244Z,19.89
2022-08-19T05:02:05.287Z,19.92
2022-08-19T05:03:07.759Z,19.94
2022-08-19T05:04:10.091Z,19.98
2022-08-19T05:05:11.979Z,19.99
2022-08-19T05:06:15.768Z,20.05
2022-08-19T05:07:17.690Z,20.09
2022-08-19T05:08:31.280Z,20.14
2022-08-19T05:09:57.896Z,20.15
2022-08-19T05:10:54.847Z,20.21
2022-08-19T05:11:56.377Z,20.24
2022-08-19T05:12:58.717Z,20.26
2022-08-19T05:14:00.707Z,20.27
2022-08-19T05:15:06.665Z,20.25
2022-08-19T05:16:08.305Z,20.27
2022-08-19T05:17:27.040Z,20.26
2022-08-19T05:18:47.972Z,20.32
2022-08-19T05:20:08.040Z,20.36
2022-08-19T05:21:30.583Z,20.40
2022-08-19T05:22:38.247Z,20.40
2022-08-19T05:23:39.906Z,20.47
2022-08-19T05:25:02.476Z,20.49
2022-08-19T05:26:03.602Z,20.53
2022-08-19T05:27:06.595Z,20.35
2022-08-19T05:28:08.215Z,20.61
2022-08-19T05:29:11.113Z,20.64
2022-08-19T05:30:12.941Z,20.60
2022-08-19T05:31:14.830Z,20.66
2022-08-19T05:32:16.842Z,20.65
2022-08-19T05:33:19.477Z,20.71
2022-08-19T05:34:24.094Z,20.75
2022-08-19T05:35:25.689Z,20.74
2022-08-19T05:36:29.028Z,20.70
2022-08-19T05:37:30.943Z,20.71
2022-08-19T05:38:36.701Z,20.75
2022-08-19T05:39:38.937Z,20.77
2022-08-19T05:40:40.927Z,20.79
2022-08-19T05:41:44.545Z,20.78
2022-08-19T05:42:46.557Z,20.77
2022-08-19T05:44:03.720Z,20.72
2022-08-19T05:45:05.755Z,20.71
2022-08-19T05:46:08.170Z,20.72
2022-08-19T05:47:09.851Z,20.74
2022-08-19T05:48:12.334Z,20.72
2022-08-19T05:49:16.136Z,20.77
2022-08-19T05:50:18.525Z,20.79
2022-08-19T05:51:20.158Z,20.82
2022-08-19T05:52:25.368Z,20.89
2022-08-19T05:53:27.556Z,20.90
2022-08-19T05:54:29.180Z,20.96
2022-08-19T05:55:31.053Z,20.93
2022-08-19T05:56:33.086Z,20.89
2022-08-19T05:57:34.665Z,20.92
2022-08-19T05:58:37.583Z,20.97
2022-08-19T05:59:39.309Z,20.99
2022-08-19T06:00:43.537Z,20.91
2022-08-19T06:01:47.176Z,20.92
2022-08-19T06:02:48.834Z,20.93
2022-08-19T06:03:50.500Z,20.89
2022-08-19T06:04:52.059Z,20.85
2022-08-19T06:05:54.092Z,20.84
2022-08-19T06:06:57.213Z,20.83
2022-08-19T06:08:02.038Z,20.80
2022-08-19T06:09:08.488Z,20.91
2022-08-19T06:10:11.940Z,20.95
2022-08-19T06:11:22.626Z,20.95
2022-08-19T06:12:29.658Z,21.00
2022-08-19T06:13:33.397Z,21.06
2022-08-19T06:14:41.787Z,21.06
2022-08-19T06:15:45.352Z,21.09
2022-08-19T06:16:47.011Z,21.14
2022-08-19T06:17:48.811Z,21.17
2022-08-19T06:18:55.010Z,21.22
2022-08-19T06:19:57.378Z,21.28
2022-08-19T06:20:59.048Z,21.33
2022-08-19T06:22:01.234Z,21.34
2022-08-19T06:23:03.935Z,21.39
2022-08-19T06:24:07.492Z,21.42
2022-08-19T06:25:12.657Z,21.44
2022-08-19T06:26:16.308Z,21.46
2022-08-19T06:27:17.955Z,21.51
2022-08-19T06:28:19.698Z,21.55
2022-08-19T06:29:24.784Z,21.59
2022-08-19T06:30:26.650Z,21.59
2022-08-19T06:31:30.161Z,21.62
2022-08-19T06:32:31.847Z,21.64
2022-08-19T06:33:33.375Z,21.66
2022-08-19T06:34:35.878Z,21.60
2022-08-19T06:35:41.970Z,21.62
2022-08-19T06:36:46.373Z,21.64
2022-08-19T06:37:48.097Z,21.58
2022-08-19T06:38:49.635Z,21.61
2022-08-19T06:39:51.574Z,21.55
2022-08-19T06:41:07.979Z,21.52
2022-08-19T06:42:17.081Z,21.47
2022-08-19T06:43:19.508Z,21.51
2022-08-19T06:44:25.834Z,21.52
2022-08-19T06:45:34.448Z,21.53
2022-08-19T06:46:38.926Z,21.58
2022-08-19T06:47:44.831Z,21.62
2022-08-19T06:48:47.715Z,21.60
2022-08-19T06:49:49.265Z,21.53
2022-08-19T06:50:52.463Z,21.56
2022-08-19T06:51:54.318Z,21.58
2022-08-19T06:52:56.180Z,21.54
2022-08-19T06:53:58.084Z,21.53
2022-08-19T06:55:00.191Z,21.57
2022-08-19T06:56:03.173Z,21.58
2022-08-19T06:57:05.031Z,21.62
2022-08-19T06:58:06.801Z,21.66
2022-08-19T06:59:11.985Z,21.72
2022-08-19T07:00:17.109Z,21.80
2022-08-19T07:01:19.804Z,21.80
2022-08-19T07:02:21.962Z,21.91
2022-08-19T07:03:23.718Z,21.94
2022-08-19T07:04:29.039Z,21.95
2022-08-19T07:05:30.743Z,21.98
2022-08-19T07:06:43.904Z,21.98
2022-08-19T07:07:47.592Z,21.81
2022-08-19T07:08:49.507Z,22.05
2022-08-19T07:09:59.075Z,22.09
2022-08-19T07:11:01.877Z,22.10
2022-08-19T07:12:13.124Z,22.24
2022-08-19T07:13:15.023Z,22.35
2022-08-19T07:14:20.029Z,22.30
2022-08-19T07:15:22.201Z,22.66
2022-08-19T07:16:27.983Z,22.68
2022-08-19T07:17:31.133Z,22.81
2022-08-19T07:18:33.012Z,22.89
2022-08-19T07:19:35.509Z,23.05
2022-08-19T07:20:38.094Z,23.15
2022-08-19T07:21:41.097Z,23.37
2022-08-19T07:22:42.770Z,23.53
2022-08-19T07:23:44.976Z,23.60
2022-08-19T07:24:51.121Z,23.72
2022-08-19T07:25:53.469Z,23.85
2022-08-19T07:27:01.255Z,24.01
2022-08-19T07:28:03.051Z,24.11
2022-08-19T07:29:04.670Z,24.22
2022-08-19T07:30:07.397Z,24.21
2022-08-19T07:31:18.445Z,24.15
2022-08-19T07:32:22.064Z,24.20
2022-08-19T07:33:23.677Z,24.15
2022-08-19T07:34:26.713Z,24.24
2022-08-19T07:35:29.407Z,24.31
2022-08-19T07:36:33.113Z,24.39
2022-08-19T07:37:37.954Z,24.38
2022-08-19T07:38:41.863Z,24.40
2022-08-19T07:39:43.510Z,24.43
2022-08-19T07:40:47.071Z,24.39
2022-08-19T07:41:49.224Z,24.57
2022-08-19T07:42:50.859Z,24.62
2022-08-19T07:43:54.104Z,24.65
2022-08-19T07:44:55.715Z,24.69
2022-08-19T07:45:57.730Z,24.63
2022-08-19T07:47:01.008Z,24.71
2022-08-19T07:48:03.022Z,24.68
2022-08-19T07:49:07.730Z,24.66
2022-08-19T07:50:12.367Z,24.69
2022-08-19T07:51:36.084Z,24.61
2022-08-19T07:52:40.508Z,24.80
2022-08-19T07:53:44.215Z,24.83
2022-08-19T07:54:45.788Z,24.91
2022-08-19T07:55:47.890Z,24.90
2022-08-19T07:56:52.494Z,24.97
2022-08-19T07:57:54.598Z,24.92
2022-08-19T08:00:05.491Z,24.70
2022-08-19T08:01:10.812Z,24.67
2022-08-19T08:02:12.405Z,24.69
2022-08-19T08:03:16.652Z,24.54
2022-08-19T08:04:38.559Z,24.60
2022-08-19T08:05:59.377Z,24.64
2022-08-19T08:07:19.378Z,24.70
2022-08-19T08:08:36.479Z,24.74
2022-08-19T08:09:42.459Z,24.95
2022-08-19T08:10:44.300Z,25.23
2022-08-19T08:12:02.065Z,25.29
2022-08-19T08:13:09.335Z,25.52
2022-08-19T08:14:29.518Z,25.80
2022-08-19T08:15:40.031Z,26.03
2022-08-19T08:16:47.014Z,26.57
2022-08-19T08:17:51.640Z,26.88
2022-08-19T08:18:53.462Z,27.38
2022-08-19T08:19:55.787Z,27.90
2022-08-19T08:20:58.336Z,27.96
2022-08-19T08:22:02.094Z,28.09
2022-08-19T08:23:22.680Z,28.14
2022-08-19T08:24:28.683Z,28.17
2022-08-19T08:25:32.530Z,27.96
2022-08-19T08:26:36.058Z,27.87
2022-08-19T08:27:42.124Z,27.72
2022-08-19T08:28:47.867Z,27.71
2022-08-19T08:29:50.019Z,27.64
2022-08-19T08:30:52.943Z,27.15
2022-08-19T08:31:59.679Z,26.96
2022-08-19T08:33:02.587Z,26.57
2022-08-19T08:34:04.613Z,26.63
2022-08-19T08:35:08.587Z,26.75
2022-08-19T08:36:10.276Z,26.90
2022-08-19T08:37:11.851Z,26.94
2022-08-19T08:38:14.416Z,27.09
2022-08-19T08:39:19.541Z,27.41
2022-08-19T08:40:28.808Z,27.77
2022-08-19T08:41:50.148Z,28.04
2022-08-19T08:43:07.315Z,28.49
2022-08-19T08:44:24.351Z,28.86
2022-08-19T08:45:29.972Z,29.67
2022-08-19T08:46:54.659Z,30.17
2022-08-19T08:48:02.790Z,30.63
2022-08-19T08:49:17.928Z,30.50
2022-08-19T08:50:26.560Z,30.47
2022-08-19T08:51:35.190Z,30.83
2022-08-19T08:52:43.681Z,30.93
2022-08-19T08:53:48.208Z,30.68
2022-08-19T08:54:55.516Z,30.87
2022-08-19T08:55:57.453Z,30.95
2022-08-19T08:56:59.632Z,30.86
2022-08-19T08:58:15.005Z,31.11
2022-08-19T08:59:33.262Z,31.14
2022-08-19T09:00:39.135Z,31.51
2022-08-19T09:01:40.878Z,31.17
2022-08-19T09:02:43.542Z,30.76
2022-08-19T09:03:46.384Z,30.24
2022-08-19T09:04:48.117Z,28.77
2022-08-19T09:06:04.363Z,28.96
2022-08-19T09:07:34.827Z,28.85
2022-08-19T09:08:49.288Z,29.02
2022-08-19T09:09:58.107Z,28.84
2022-08-19T09:11:05.650Z,28.57
2022-08-19T09:12:36.704Z,28.35
2022-08-19T09:13:59.147Z,28.24
2022-08-19T09:15:13.007Z,27.96
2022-08-19T09:16:21.825Z,28.04
2022-08-19T09:17:32.277Z,28.24
2022-08-19T09:18:42.949Z,28.34
2022-08-19T09:19:50.180Z,28.20
2022-08-19T09:20:51.855Z,28.35
2022-08-19T09:21:53.806Z,28.39
2022-08-19T09:22:59.492Z,28.44
2022-08-19T09:24:05.526Z,28.38
2022-08-19T09:25:09.975Z,28.52
2022-08-19T09:26:17.415Z,28.73
2022-08-19T09:27:22.188Z,28.80
2022-08-19T09:28:48.940Z,29.00
2022-08-19T09:29:51.531Z,29.30
2022-08-19T09:30:56.512Z,30.00
2022-08-19T09:31:58.124Z,30.52
2022-08-19T09:33:00.117Z,30.55
2022-08-19T09:34:04.667Z,29.89
2022-08-19T09:35:08.760Z,29.82
2022-08-19T09:36:14.225Z,29.86
2022-08-19T09:37:26.014Z,29.96
2022-08-19T09:38:27.581Z,29.91
2022-08-19T09:39:35.866Z,29.88
2022-08-19T09:40:38.584Z,30.33
2022-08-19T09:41:40.282Z,31.14
2022-08-19T09:42:49.950Z,31.17
2022-08-19T09:43:54.747Z,31.89
2022-08-19T09:44:56.328Z,32.60
2022-08-19T09:45:58.196Z,33.13
2022-08-19T09:47:01.185Z,33.50
2022-08-19T09:48:03.820Z,33.31
2022-08-19T09:49:07.349Z,33.39
2022-08-19T09:50:12.314Z,33.52
2022-08-19T09:51:23.555Z,33.24
2022-08-19T09:52:25.258Z,32.83
2022-08-19T09:53:34.635Z,32.36
2022-08-19T09:54:39.850Z,32.11
2022-08-19T09:55:45.951Z,31.57
2022-08-19T09:56:47.865Z,31.41
2022-08-19T09:57:49.427Z,31.11
2022-08-19T09:58:51.045Z,30.85
2022-08-19T09:59:52.630Z,30.33
2022-08-19T10:00:56.223Z,29.97
2022-08-19T10:02:04.036Z,29.70
2022-08-19T10:03:12.657Z,29.45
2022-08-19T10:04:20.434Z,29.16
2022-08-19T10:05:42.913Z,28.11
2022-08-19T10:06:46.403Z,28.00
2022-08-19T10:07:48.929Z,28.20
2022-08-19T10:08:52.582Z,28.46
2022-08-19T10:09:54.242Z,28.56
2022-08-19T10:10:56.914Z,28.55
2022-08-19T10:12:02.594Z,28.64
2022-08-19T10:13:04.896Z,28.62
2022-08-19T10:14:07.237Z,28.60
2022-08-19T10:15:09.403Z,28.50
2022-08-19T10:16:14.504Z,28.29
2022-08-19T10:17:20.785Z,28.15
2022-08-19T10:18:26.299Z,28.08
2022-08-19T10:19:31.027Z,27.90
2022-08-19T10:20:32.865Z,27.90
2022-08-19T10:21:35.357Z,27.64
2022-08-19T10:22:38.360Z,27.33
2022-08-19T10:23:46.041Z,26.94
2022-08-19T10:24:48.135Z,26.81
2022-08-19T10:25:50.754Z,26.67
2022-08-19T10:26:58.771Z,26.59
2022-08-19T10:28:01.691Z,26.86
2022-08-19T10:29:05.753Z,26.84
2022-08-19T10:30:10.088Z,26.90
2022-08-19T10:31:16.048Z,26.74
2022-08-19T10:32:28.432Z,26.92
2022-08-19T10:33:53.176Z,27.20
2022-08-19T10:34:57.088Z,27.20
2022-08-19T10:36:05.534Z,27.23
2022-08-19T10:37:10.745Z,27.28
2022-08-19T10:38:12.506Z,27.36
2022-08-19T10:39:14.076Z,27.27
2022-08-19T10:40:15.825Z,27.39
2022-08-19T10:41:23.294Z,27.63
2022-08-19T10:42:25.079Z,27.90
2022-08-19T10:43:26.773Z,28.12
2022-08-19T10:44:32.328Z,28.12
2022-08-19T10:45:34.412Z,27.98
2022-08-19T10:46:48.975Z,28.09
2022-08-19T10:47:51.964Z,28.32
2022-08-19T10:48:55.008Z,28.46
2022-08-19T10:50:15.425Z,28.03
2022-08-19T10:51:36.513Z,28.63
2022-08-19T10:52:50.816Z,28.64
2022-08-19T10:53:52.775Z,28.67
2022-08-19T10:55:13.029Z,28.77
2022-08-19T10:56:33.572Z,29.92
2022-08-19T10:58:58.444Z,31.30
2022-08-19T10:59:59.975Z,31.61
2022-08-19T11:01:04.184Z,31.35
2022-08-19T11:02:10.532Z,30.81
2022-08-19T11:03:12.241Z,30.71
2022-08-19T11:04:14.744Z,30.54
2022-08-19T11:05:18.030Z,30.34
2022-08-19T11:06:21.488Z,30.52
2022-08-19T11:07:26.104Z,31.12
2022-08-19T11:08:27.831Z,31.72
2022-08-19T11:09:34.078Z,32.27
2022-08-19T11:10:37.396Z,32.98
2022-08-19T11:11:41.779Z,33.74
2022-08-19T11:12:43.369Z,34.55
2022-08-19T11:13:46.838Z,35.47
2022-08-19T11:14:50.757Z,36.03
2022-08-19T11:16:07.674Z,36.20
2022-08-19T11:17:09.675Z,35.58
2022-08-19T11:18:13.209Z,35.14
2022-08-19T11:19:17.985Z,34.90
2022-08-19T11:20:19.656Z,34.20
2022-08-19T11:21:32.554Z,33.37
2022-08-19T11:22:40.597Z,32.93
2022-08-19T11:23:44.429Z,32.41
2022-08-19T11:24:46.084Z,31.73
2022-08-19T11:25:47.659Z,30.78
2022-08-19T11:26:51.239Z,30.24
2022-08-19T11:27:53.224Z,29.76
2022-08-19T11:28:55.976Z,29.50
2022-08-19T11:29:57.569Z,29.06
2022-08-19T11:30:59.386Z,29.05
2022-08-19T11:32:04.276Z,28.97
2022-08-19T11:33:05.884Z,29.53
2022-08-19T11:34:13.204Z,29.96
2022-08-19T11:35:15.184Z,30.21
2022-08-19T11:36:17.370Z,30.33
2022-08-19T11:37:19.069Z,30.34
2022-08-19T11:38:20.737Z,30.21
2022-08-19T11:39:23.440Z,29.73
2022-08-19T11:40:25.055Z,29.62
2022-08-19T11:41:27.204Z,29.07
2022-08-19T11:42:47.555Z,28.98
2022-08-19T11:43:53.905Z,28.91
2022-08-19T11:44:55.788Z,28.82
2022-08-19T11:45:58.887Z,28.43
2022-08-19T11:47:08.893Z,28.75
2022-08-19T11:48:11.150Z,29.21
2022-08-19T11:49:14.527Z,29.74
2022-08-19T11:50:17.479Z,29.75
2022-08-19T11:51:22.642Z,29.77
2022-08-19T11:52:24.258Z,29.61
2022-08-19T11:53:26.197Z,29.66
2022-08-19T11:54:27.812Z,30.26
2022-08-19T11:55:29.433Z,30.56
2022-08-19T11:56:31.129Z,30.68
2022-08-19T11:57:33.480Z,30.99
2022-08-19T11:58:36.088Z,31.41
2022-08-19T11:59:37.771Z,31.71
2022-08-19T12:00:39.950Z,31.47
2022-08-19T12:01:44.961Z,31.56
2022-08-19T12:02:46.999Z,31.03
2022-08-19T12:03:50.760Z,30.19
2022-08-19T12:04:52.511Z,29.53
2022-08-19T12:05:54.441Z,29.49
2022-08-19T12:06:56.285Z,29.41
2022-08-19T12:07:57.884Z,29.17
2022-08-19T12:09:02.668Z,28.40
2022-08-19T12:10:04.674Z,28.72
2022-08-19T12:11:08.882Z,28.57
2022-08-19T12:12:10.931Z,28.68
2022-08-19T12:13:19.247Z,28.33
2022-08-19T12:14:20.804Z,28.17
2022-08-19T12:15:22.734Z,28.09
2022-08-19T12:16:27.771Z,28.01
2022-08-19T12:17:31.762Z,27.98
2022-08-19T12:18:34.153Z,27.97
2022-08-19T12:19:37.696Z,27.95
2022-08-19T12:20:41.089Z,28.00
2022-08-19T12:21:42.767Z,27.69
2022-08-19T12:22:44.463Z,27.80
2022-08-19T12:23:46.383Z,28.03
2022-08-19T12:24:51.608Z,28.24
2022-08-19T12:25:53.262Z,28.34
2022-08-19T12:26:56.319Z,28.72
2022-08-19T12:28:03.811Z,29.31
2022-08-19T12:29:06.760Z,29.59
2022-08-19T12:30:11.198Z,29.11
2022-08-19T12:31:13.091Z,29.25
2022-08-19T12:32:14.749Z,29.47
2022-08-19T12:33:16.917Z,29.59
2022-08-19T12:34:20.701Z,29.47
2022-08-19T12:35:22.766Z,28.89
2022-08-19T12:36:25.729Z,28.96
2022-08-19T12:37:27.480Z,29.08
2022-08-19T12:38:29.834Z,29.08
2022-08-19T12:39:34.536Z,28.75
2022-08-19T12:40:36.187Z,28.22
2022-08-19T12:41:38.299Z,28.01
2022-08-19T12:42:55.813Z,28.01
2022-08-19T12:43:57.475Z,28.01
2022-08-19T12:44:59.098Z,27.98
2022-08-19T12:46:00.622Z,27.88
2022-08-19T12:47:04.009Z,27.89
2022-08-19T12:48:32.941Z,27.85
2022-08-19T12:49:53.896Z,27.74
2022-08-19T12:50:52.384Z,27.60
2022-08-19T12:51:54.240Z,27.24
2022-08-19T12:52:56.065Z,27.06
2022-08-19T12:53:57.667Z,27.03
2022-08-19T12:54:59.429Z,27.03
2022-08-19T12:56:01.155Z,26.92
2022-08-19T12:57:10.494Z,26.83
2022-08-19T12:58:13.488Z,26.78
2022-08-19T12:59:17.654Z,26.70
2022-08-19T13:00:22.140Z,26.00
2022-08-19T13:01:23.942Z,26.42
2022-08-19T13:02:25.604Z,26.52
2022-08-19T13:03:30.291Z,26.56
2022-08-19T13:04:31.964Z,26.57
2022-08-19T13:05:35.121Z,26.47
2022-08-19T13:06:37.450Z,26.59
2022-08-19T13:07:40.600Z,26.52
2022-08-19T13:08:42.787Z,26.53
2022-08-19T13:09:48.060Z,26.70
2022-08-19T13:10:49.567Z,26.82
2022-08-19T13:11:51.131Z,26.71
2022-08-19T13:12:54.182Z,26.82
2022-08-19T13:13:56.204Z,26.83
2022-08-19T13:14:57.873Z,26.85
2022-08-19T13:16:04.230Z,26.90
2022-08-19T13:17:05.873Z,26.83
2022-08-19T13:18:09.970Z,26.90
2022-08-19T13:19:12.980Z,26.87
2022-08-19T13:20:14.579Z,27.06
2022-08-19T13:21:16.484Z,27.19
2022-08-19T13:22:18.446Z,27.41
2022-08-19T13:23:20.113Z,27.44
2022-08-19T13:24:21.719Z,27.48
2022-08-19T13:25:28.069Z,27.61
2022-08-19T13:26:29.740Z,27.63
2022-08-19T13:27:31.435Z,27.71
2022-08-19T13:28:52.545Z,27.46
2022-08-19T13:30:13.213Z,27.81
2022-08-19T13:31:41.012Z,27.86
2022-08-19T13:33:01.205Z,27.93
2022-08-19T13:34:02.821Z,28.16
2022-08-19T13:35:05.185Z,28.51
2022-08-19T13:36:08.784Z,28.93
2022-08-19T13:37:10.565Z,29.47
2022-08-19T13:38:13.576Z,30.17
2022-08-19T13:39:15.223Z,30.76
2022-08-19T13:40:24.759Z,31.33
2022-08-19T13:41:27.741Z,31.45
2022-08-19T13:42:33.919Z,31.64
2022-08-19T13:43:35.619Z,31.70
2022-08-19T13:44:37.417Z,31.64
2022-08-19T13:45:39.120Z,31.33
2022-08-19T13:46:40.792Z,31.15
2022-08-19T13:47:45.834Z,30.82
2022-08-19T13:48:49.369Z,30.52
2022-08-19T13:49:51.023Z,30.39
2022-08-19T13:50:52.929Z,30.31
2022-08-19T13:51:54.530Z,30.12
2022-08-19T13:52:57.025Z,29.85
2022-08-19T13:53:58.646Z,29.60
2022-08-19T13:55:00.268Z,29.45
2022-08-19T13:56:06.572Z,29.26
2022-08-19T13:57:08.179Z,28.87
2022-08-19T13:58:11.696Z,28.69
2022-08-19T13:59:13.614Z,28.58